Time;durP1;ratioP1;P1;durP2;ratioP2;P2;SDS_P1;SDS_P2;PMS_P1;PMS_P2;Temp;Humidity;BMP_temperature;BMP_pressure;BME280_temperature;BME280_humidity;BME280_pressure;Samples;Min_cycle;Max_cycle;Signal;HPM_P1;HPM_P2
2021/01/15 00:01:18;;;;;;;42.05;22.65;;;;;;;-2.02;82.37;98797.09;119060;1151;65124;-80
2021/01/15 00:03:44;;;;;;;40.47;22.20;;;;;;;-1.99;82.63;98799.65;118986;1151;65216;-80
2021/01/15 00:06:18;;;;;;;44.85;25.85;;;;;;;-2.00;82.38;98809.23;119012;1151;65134;-80
2021/01/15 00:08:45;;;;;;;39.45;22.30;;;;;;;-1.99;82.68;98815.31;119333;1150;65104;-80
2021/01/15 00:11:22;;;;;;;35.00;19.33;;;;;;;-2.01;82.62;98817.09;119089;1151;65217;-80
2021/01/15 00:13:49;;;;;;;39.70;21.73;;;;;;;-2.03;82.02;98831.91;119343;1150;65100;-81
2021/01/15 00:16:23;;;;;;;40.60;23.07;;;;;;;-2.06;82.58;98826.75;119281;1150;65197;-81
2021/01/15 00:18:52;;;;;;;41.10;24.67;;;;;;;-2.06;82.80;98830.22;119330;1150;65202;-81
2021/01/15 00:21:21;;;;;;;42.53;23.87;;;;;;;-2.06;82.42;98829.37;119318;1150;65117;-81
2021/01/15 00:23:47;;;;;;;37.00;23.03;;;;;;;-2.07;82.29;98833.73;119081;1149;65267;-82
2021/01/15 00:26:21;;;;;;;32.80;20.60;;;;;;;-2.08;81.96;98839.86;119315;1151;65159;-81
2021/01/15 00:28:48;;;;;;;34.50;20.47;;;;;;;-2.13;81.20;98839.08;119107;1151;65101;-81
2021/01/15 00:31:14;;;;;;;34.00;19.80;;;;;;;-2.16;81.69;98838.25;118499;1150;65127;-80
2021/01/15 00:33:41;;;;;;;34.50;19.27;;;;;;;-2.21;80.64;98839.22;118793;1151;65069;-79
2021/01/15 00:36:08;;;;;;;30.50;16.90;;;;;;;-2.24;80.73;98835.78;119097;1151;65190;-79
2021/01/15 00:38:35;;;;;;;33.40;18.33;;;;;;;-2.25;80.49;98845.36;119154;1151;65124;-79
2021/01/15 00:41:04;;;;;;;37.63;20.50;;;;;;;-2.25;80.86;98849.73;118672;1150;65190;-80
2021/01/15 00:43:31;;;;;;;35.88;21.37;;;;;;;-2.25;81.81;98858.41;119310;1151;65196;-79
2021/01/15 00:45:58;;;;;;;36.40;20.93;;;;;;;-2.21;81.26;98861.86;118916;1151;65117;-79
2021/01/15 00:48:25;;;;;;;33.20;18.35;;;;;;;-2.20;81.22;98853.13;119222;1150;65135;-80
2021/01/15 00:50:52;;;;;;;31.80;18.70;;;;;;;-2.20;81.21;98855.73;119259;1151;65114;-80
2021/01/15 00:53:19;;;;;;;36.33;19.50;;;;;;;-2.26;80.49;98858.46;118998;1150;65202;-80
2021/01/15 00:55:45;;;;;;;34.07;18.30;;;;;;;-2.28;80.98;98863.70;118534;1150;65245;-80
2021/01/15 00:58:13;;;;;;;34.87;20.03;;;;;;;-2.31;81.20;98858.53;118906;1151;65634;-80
2021/01/15 01:00:40;;;;;;;33.57;18.30;;;;;;;-2.31;80.55;98871.58;119343;1151;65191;-80
2021/01/15 01:03:07;;;;;;;30.30;15.90;;;;;;;-2.32;79.62;98874.20;119229;1150;65128;-80
2021/01/15 01:05:36;;;;;;;27.80;16.10;;;;;;;-2.35;80.85;98877.73;118553;1151;65175;-79
2021/01/15 01:08:02;;;;;;;30.67;16.70;;;;;;;-2.37;79.76;98881.25;119332;1150;65201;-81
2021/01/15 01:10:29;;;;;;;26.20;17.30;;;;;;;-2.35;80.71;98888.17;119316;1150;65093;-82
2021/01/15 01:12:55;;;;;;;31.97;17.33;;;;;;;-2.39;80.02;98881.30;119058;1151;65165;-79
2021/01/15 01:15:21;;;;;;;30.95;16.87;;;;;;;-2.43;80.00;98885.68;119034;1151;65099;-80
2021/01/15 01:17:48;;;;;;;29.90;16.67;;;;;;;-2.43;79.90;98893.52;119247;1150;65097;-80
2021/01/15 01:20:15;;;;;;;31.63;17.73;;;;;;;-2.42;80.66;98897.00;119001;1151;65069;-80
2021/01/15 01:22:49;;;;;;;28.47;16.20;;;;;;;-2.45;80.30;98892.70;118958;1151;65190;-80
2021/01/15 01:25:17;;;;;;;28.60;16.00;;;;;;;-2.44;80.14;98897.02;119295;1151;65108;-79
2021/01/15 01:27:45;;;;;;;32.73;16.17;;;;;;;-2.45;80.20;98895.31;119254;1151;65199;-79
2021/01/15 01:30:14;;;;;;;23.50;14.27;;;;;;;-2.45;79.75;98895.31;119250;1150;65233;-79
2021/01/15 01:32:41;;;;;;;26.15;14.85;;;;;;;-2.44;79.92;98902.23;119252;1150;65120;-80
2021/01/15 01:35:08;;;;;;;23.13;13.83;;;;;;;-2.42;79.77;98897.00;119212;1151;65114;-80
2021/01/15 01:37:35;;;;;;;25.17;14.30;;;;;;;-2.44;79.18;98906.60;119277;1151;65128;-80
2021/01/15 01:40:03;;;;;;;21.93;13.33;;;;;;;-2.44;79.08;98902.23;118795;1151;65118;-80
2021/01/15 01:42:30;;;;;;;24.17;13.60;;;;;;;-2.46;79.68;98903.14;118884;1151;65134;-80
2021/01/15 01:44:56;;;;;;;25.70;14.03;;;;;;;-2.45;79.44;98900.52;118939;1151;65098;-80
2021/01/15 01:47:23;;;;;;;26.60;15.90;;;;;;;-2.45;80.04;98910.08;118439;1151;65073;-79
2021/01/15 01:49:49;;;;;;;28.53;15.77;;;;;;;-2.47;79.00;98904.90;118474;1151;65145;-79
2021/01/15 01:52:16;;;;;;;29.33;16.57;;;;;;;-2.48;79.22;98904.91;118384;1151;65230;-80
2021/01/15 01:54:46;;;;;;;28.10;15.05;;;;;;;-2.49;79.47;98903.20;118419;1151;65127;-81
2021/01/15 01:57:12;;;;;;;24.55;14.78;;;;;;;-2.50;79.85;98907.56;119024;1151;65655;-79
2021/01/15 01:59:39;;;;;;;23.20;14.55;;;;;;;-2.49;79.86;98911.03;119020;1151;65053;-79
2021/01/15 02:02:05;;;;;;;25.27;15.13;;;;;;;-2.49;79.53;98903.20;118491;1151;65146;-81
2021/01/15 02:04:32;;;;;;;18.80;12.07;;;;;;;-2.49;80.20;98901.45;119072;1151;65210;-80
2021/01/15 02:06:59;;;;;;;19.93;12.90;;;;;;;-2.52;79.29;98914.55;118421;1151;65212;-80
2021/01/15 02:09:43;;;;;;;19.93;12.53;;;;;;;-2.49;79.66;98904.06;118944;1151;65136;-79
2021/01/15 02:12:38;;;;;;;22.20;13.90;;;;;;;-2.47;80.25;98904.90;118517;1151;65127;-80
2021/01/15 02:15:07;;;;;;;19.53;14.33;;;;;;;-2.47;80.17;98902.30;118546;1150;65140;-80
2021/01/15 02:17:46;;;;;;;24.25;14.95;;;;;;;-2.47;80.37;98901.44;118530;1151;65128;-80
2021/01/15 02:20:44;;;;;;;31.03;17.57;;;;;;;-2.46;80.50;98900.54;118961;1151;65137;-80
2021/01/15 02:23:17;;;;;;;27.83;17.10;;;;;;;-2.48;79.49;98899.69;118503;1151;65195;-80
2021/01/15 02:26:05;;;;;;;26.27;16.90;;;;;;;-2.51;80.35;98908.42;119020;1151;65094;-80
2021/01/15 02:29:00;;;;;;;33.10;19.23;;;;;;;-2.56;80.04;98899.81;119140;1151;65129;-81
2021/01/15 02:31:45;;;;;;;30.27;18.30;;;;;;;-2.58;80.23;98900.72;119055;1151;65118;-82
2021/01/15 02:34:49;;;;;;;34.50;20.57;;;;;;;-2.59;80.59;98902.47;118643;1151;65264;-79
2021/01/15 02:37:17;;;;;;;35.53;20.60;;;;;;;-2.57;81.25;98910.29;119025;1151;65111;-80
2021/01/15 02:40:04;;;;;;;34.37;22.03;;;;;;;-2.55;80.90;98911.98;118977;1151;65156;-80
2021/01/15 02:42:35;;;;;;;34.70;21.80;;;;;;;-2.59;81.01;98909.44;118888;1151;65207;-80
2021/01/15 02:45:13;;;;;;;39.97;23.93;;;;;;;-2.63;81.69;98903.42;118648;1151;65192;-79
2021/01/15 02:47:49;;;;;;;35.13;22.00;;;;;;;-2.67;81.35;98899.98;118973;1151;65165;-80
2021/01/15 02:50:25;;;;;;;34.80;22.30;;;;;;;-2.68;81.84;98905.23;118462;1151;65101;-80
2021/01/15 02:52:53;;;;;;;36.37;21.87;;;;;;;-2.66;81.45;98908.66;118997;1151;65121;-79
2021/01/15 02:55:21;;;;;;;31.80;20.30;;;;;;;-2.68;81.76;98900.88;119045;1151;65104;-79
2021/01/15 02:57:47;;;;;;;35.75;20.75;;;;;;;-2.68;82.01;98911.31;119018;1151;65379;-79
2021/01/15 03:00:23;;;;;;;32.27;21.13;;;;;;;-2.70;81.29;98905.25;118802;1151;65258;-79
2021/01/15 03:03:21;;;;;;;36.07;21.37;;;;;;;-2.68;81.98;98907.84;118798;1151;65143;-79
2021/01/15 03:06:00;;;;;;;30.95;19.05;;;;;;;-2.68;81.45;98916.53;118757;1151;65728;-79
2021/01/15 03:08:27;;;;;;;34.70;20.75;;;;;;;-2.71;82.15;98916.58;118956;1151;65114;-79
2021/01/15 03:10:59;;;;;;;36.65;22.05;;;;;;;-2.71;81.99;98913.11;118491;1151;65124;-79
2021/01/15 03:13:28;;;;;;;34.37;22.70;;;;;;;-2.70;81.63;98917.44;119037;1151;65255;-79
2021/01/15 03:15:59;;;;;;;35.38;22.48;;;;;;;-2.69;81.89;98906.95;118985;1151;65112;-79
2021/01/15 03:18:27;;;;;;;43.87;24.00;;;;;;;-2.69;82.14;98906.95;118999;1151;65169;-80
2021/01/15 03:20:54;;;;;;;39.33;23.00;;;;;;;-2.70;82.60;98915.68;119017;1151;65589;-80
2021/01/15 03:23:20;;;;;;;37.23;21.43;;;;;;;-2.69;82.44;98909.56;118859;1151;65152;-79
2021/01/15 03:25:46;;;;;;;35.83;20.23;;;;;;;-2.66;82.43;98919.09;118925;1151;65107;-80
2021/01/15 03:28:13;;;;;;;33.42;20.57;;;;;;;-2.65;82.87;98916.47;118856;1151;65159;-81
2021/01/15 03:30:39;;;;;;;30.27;19.57;;;;;;;-2.65;82.12;98923.45;118917;1151;65124;-81
2021/01/15 03:33:06;;;;;;;40.77;21.90;;;;;;;-2.69;82.56;98917.39;118431;1151;65149;-81
2021/01/15 03:35:33;;;;;;;32.37;19.07;;;;;;;-2.69;82.12;98916.53;118514;1151;65571;-81
2021/01/15 03:38:05;;;;;;;32.57;21.27;;;;;;;-2.70;82.45;98927.87;118649;1151;65258;-81
2021/01/15 03:40:34;;;;;;;36.23;21.63;;;;;;;-2.74;82.47;98928.78;119032;1151;65069;-79
2021/01/15 03:43:09;;;;;;;39.40;23.40;;;;;;;-2.74;82.92;98926.17;119014;1151;65042;-79
2021/01/15 03:45:35;;;;;;;36.37;20.60;;;;;;;-2.76;83.24;98918.39;119035;1151;65101;-79
2021/01/15 03:48:02;;;;;;;34.80;21.87;;;;;;;-2.81;82.82;98914.98;118975;1151;65083;-81
2021/01/15 03:50:28;;;;;;;28.43;17.57;;;;;;;-2.82;83.42;98914.99;119039;1151;65150;-79
2021/01/15 03:52:55;;;;;;;38.13;21.20;;;;;;;-2.89;83.40;98909.88;119050;1151;65124;-79
2021/01/15 03:55:21;;;;;;;33.50;21.37;;;;;;;-2.85;82.94;98912.44;119094;1151;65203;-80
2021/01/15 03:57:47;;;;;;;36.23;22.07;;;;;;;-2.87;83.67;98910.72;118728;1151;65252;-80
2021/01/15 04:00:15;;;;;;;32.57;21.07;;;;;;;-2.89;83.56;98912.48;118687;1151;65203;-80
2021/01/15 04:02:42;;;;;;;37.87;22.03;;;;;;;-2.89;83.20;98912.48;118832;1151;65255;-80
2021/01/15 04:05:11;;;;;;;35.27;22.00;;;;;;;-2.87;83.69;98915.05;118836;1151;65101;-81
2021/01/15 04:07:38;;;;;;;38.40;21.60;;;;;;;-2.87;83.16;98904.62;119065;1151;65073;-79
2021/01/15 04:10:07;;;;;;;34.57;21.27;;;;;;;-2.87;83.05;98910.72;119003;1151;65203;-79
2021/01/15 04:12:33;;;;;;;34.07;19.43;;;;;;;-2.83;82.97;98908.92;119047;1151;65101;-79
2021/01/15 04:14:59;;;;;;;38.83;21.83;;;;;;;-2.87;83.48;98907.23;118977;1151;65076;-81
2021/01/15 04:17:26;;;;;;;37.67;22.30;;;;;;;-2.89;83.20;98906.41;119075;1151;65104;-81
2021/01/15 04:19:52;;;;;;;38.47;22.10;;;;;;;-2.92;83.49;98916.89;118993;1151;65107;-79
2021/01/15 04:22:18;;;;;;;39.35;22.25;;;;;;;-2.93;83.46;98909.93;118905;1151;65132;-80
2021/01/15 04:24:45;;;;;;;35.03;21.50;;;;;;;-2.95;83.34;98903.87;118711;1150;65146;-79
2021/01/15 04:27:11;;;;;;;98.87;39.67;;;;;;;-3.01;83.40;98909.17;118408;1151;65786;-79
2021/01/15 04:29:37;;;;;;;69.13;32.17;;;;;;;-3.00;83.61;98911.78;118979;1151;65181;-80
2021/01/15 04:32:04;;;;;;;45.45;24.95;;;;;;;-2.97;83.81;98910.87;118955;1151;65092;-81
2021/01/15 04:34:31;;;;;;;39.27;23.00;;;;;;;-2.95;83.11;98907.36;119046;1151;65210;-81
2021/01/15 04:36:58;;;;;;;40.37;24.37;;;;;;;-2.95;83.19;98912.58;119046;1151;65100;-81
2021/01/15 04:39:25;;;;;;;37.37;23.53;;;;;;;-2.93;83.15;98909.93;118587;1151;65187;-81
2021/01/15 04:41:53;;;;;;;40.23;24.17;;;;;;;-2.93;83.94;98905.58;118369;1151;65204;-78
2021/01/15 04:44:19;;;;;;;41.50;22.83;;;;;;;-2.92;83.69;98916.89;118941;1151;65203;-79
2021/01/15 04:46:49;;;;;;;35.60;21.93;;;;;;;-2.92;83.80;98914.28;118709;1151;65175;-81
2021/01/15 04:49:22;;;;;;;37.90;22.65;;;;;;;-2.90;83.91;98909.88;119012;1151;65207;-79
2021/01/15 04:51:55;;;;;;;41.67;25.07;;;;;;;-2.90;83.48;98912.49;118438;1151;65105;-79
2021/01/15 04:54:34;;;;;;;39.80;25.00;;;;;;;-2.91;83.17;98909.03;118642;1151;65127;-79
2021/01/15 04:57:04;;;;;;;43.50;24.20;;;;;;;-2.90;84.03;98913.38;118977;1151;65098;-81
2021/01/15 04:59:33;;;;;;;37.13;23.20;;;;;;;-2.88;84.02;98918.55;119032;1151;65040;-81
2021/01/15 05:02:07;;;;;;;38.60;22.80;;;;;;;-2.89;83.70;98914.23;119066;1151;65056;-81
2021/01/15 05:04:34;;;;;;;44.03;26.00;;;;;;;-2.90;83.83;98913.38;118979;1151;65166;-81
2021/01/15 05:07:08;;;;;;;37.63;23.07;;;;;;;-2.88;83.99;98905.52;119073;1151;65129;-79
2021/01/15 05:09:43;;;;;;;37.90;23.25;;;;;;;-2.90;83.42;98913.38;119052;1151;65143;-79
2021/01/15 05:12:12;;;;;;;40.37;22.97;;;;;;;-2.92;83.23;98914.28;119039;1151;65126;-79
2021/01/15 05:14:42;;;;;;;36.10;23.33;;;;;;;-2.91;83.52;98911.63;119064;1151;66381;-79
2021/01/15 05:17:08;;;;;;;38.73;23.38;;;;;;;-2.92;84.18;98917.75;118903;1151;65118;-79
2021/01/15 05:19:41;;;;;;;32.03;20.03;;;;;;;-2.91;84.26;98924.67;118975;1151;65233;-80
2021/01/15 05:22:09;;;;;;;33.30;20.73;;;;;;;-2.90;84.37;98928.13;118475;1151;65577;-79
2021/01/15 05:24:37;;;;;;;38.40;22.67;;;;;;;-2.91;83.74;98924.67;118895;1151;65105;-81
2021/01/15 05:30:13;;;;;;;52.17;27.37;;;;;;;-2.93;83.74;98918.61;119005;1151;65281;-81
2021/01/15 05:32:41;;;;;;;55.37;29.53;;;;;;;-2.91;83.77;98913.39;119129;1151;65146;-79
2021/01/15 05:35:08;;;;;;;44.47;24.60;;;;;;;-2.90;83.92;98920.31;119026;1151;65114;-78
2021/01/15 05:37:35;;;;;;;39.60;23.77;;;;;;;-2.90;83.66;98915.09;119128;1151;65130;-79
2021/01/15 05:40:02;;;;;;;37.20;23.07;;;;;;;-2.92;84.26;98919.50;118851;1151;65161;-79
2021/01/15 05:42:29;;;;;;;42.00;23.17;;;;;;;-2.95;84.06;98920.41;119024;1151;65446;-81
2021/01/15 05:45:15;;;;;;;36.00;22.30;;;;;;;-2.93;83.68;98921.22;119035;1151;65133;-81
2021/01/15 05:47:46;;;;;;;39.57;22.80;;;;;;;-2.93;83.78;98926.44;119149;1151;65204;-80
2021/01/15 05:50:13;;;;;;;42.67;24.27;;;;;;;-2.96;84.07;98923.88;118957;1150;65131;-79
2021/01/15 05:52:57;;;;;;;40.77;23.33;;;;;;;-2.96;83.69;98923.88;118529;1151;65143;-79
2021/01/15 05:55:25;;;;;;;43.53;25.63;;;;;;;-3.00;83.48;98932.63;119072;1151;65255;-79
2021/01/15 05:57:52;;;;;;;40.87;23.07;;;;;;;-3.02;84.08;98915.29;119022;1151;65079;-79
2021/01/15 06:00:26;;;;;;;35.47;21.10;;;;;;;-3.04;83.87;98920.52;119024;1151;65496;-79
2021/01/15 06:02:53;;;;;;;34.63;21.60;;;;;;;-3.05;83.97;98918.80;119123;1151;65129;-79
2021/01/15 06:05:22;;;;;;;35.90;20.53;;;;;;;-3.07;84.12;98925.77;118840;1151;65578;-80
2021/01/15 06:07:56;;;;;;;36.93;21.53;;;;;;;-3.09;84.06;98940.56;119005;1151;65150;-80
2021/01/15 06:10:27;;;;;;;35.63;22.17;;;;;;;-3.08;83.74;98947.52;118500;1151;65219;-80
2021/01/15 06:12:54;;;;;;;36.45;21.40;;;;;;;-3.07;83.65;98946.63;119117;1151;65127;-80
2021/01/15 06:15:21;;;;;;;30.50;19.97;;;;;;;-3.06;84.07;98953.55;119018;1151;65657;-80
2021/01/15 06:17:52;;;;;;;37.87;21.43;;;;;;;-3.03;83.40;98947.44;118512;1151;65063;-79
2021/01/15 06:20:22;;;;;;;31.53;20.30;;;;;;;-3.02;83.75;98949.18;118399;1151;65101;-79
2021/01/15 06:22:54;;;;;;;30.03;19.87;;;;;;;-3.03;83.81;98956.11;119022;1151;65127;-79
2021/01/15 06:25:31;;;;;;;34.17;20.43;;;;;;;-3.00;83.19;98958.70;118964;1151;65484;-79
2021/01/15 06:28:03;;;;;;;28.20;19.50;;;;;;;-3.01;83.58;98967.39;119012;1151;65127;-79
2021/01/15 06:30:31;;;;;;;30.75;18.20;;;;;;;-3.00;83.55;98963.03;119027;1151;65200;-79
2021/01/15 06:33:13;;;;;;;27.90;17.95;;;;;;;-3.01;83.38;98964.78;118977;1151;65168;-79
2021/01/15 06:35:46;;;;;;;26.73;15.60;;;;;;;-3.01;83.40;98970.00;119054;1151;65121;-79
2021/01/15 06:38:18;;;;;;;31.30;18.25;;;;;;;-3.02;83.40;98973.50;118994;1151;65128;-81
2021/01/15 06:40:47;;;;;;;29.23;18.03;;;;;;;-3.01;82.75;98976.96;119092;1151;65031;-80
2021/01/15 06:43:21;;;;;;;25.20;16.43;;;;;;;-3.01;83.09;98982.17;119078;1151;65123;-79
2021/01/15 06:45:54;;;;;;;30.77;17.43;;;;;;;-3.02;83.23;98977.86;118993;1151;65227;-79
2021/01/15 06:48:26;;;;;;;28.97;18.37;;;;;;;-2.98;82.93;98987.34;119045;1150;65203;-80
2021/01/15 06:50:55;;;;;;;28.70;19.03;;;;;;;-2.99;83.32;98983.88;119055;1151;65178;-79
2021/01/15 06:53:21;;;;;;;28.05;17.10;;;;;;;-2.98;83.04;99011.66;119040;1151;65121;-81
2021/01/15 06:55:56;;;;;;;24.27;15.83;;;;;;;-3.10;83.41;99032.69;119071;1151;65154;-79
2021/01/15 06:58:28;;;;;;;18.27;12.83;;;;;;;-3.38;82.54;99022.55;118627;1151;65439;-80
2021/01/15 07:01:19;;;;;;;19.50;12.53;;;;;;;-3.60;81.49;99026.26;118444;1151;65545;-80
2021/01/15 07:04:03;;;;;;;19.37;12.63;;;;;;;-3.79;82.00;99026.42;118716;1151;65131;-80
2021/01/15 07:06:32;;;;;;;18.10;11.27;;;;;;;-3.87;80.94;99040.36;118971;1151;65184;-79
2021/01/15 07:09:04;;;;;;;16.20;11.43;;;;;;;-3.91;80.65;99039.53;118944;1151;65127;-79
2021/01/15 07:11:32;;;;;;;17.53;10.67;;;;;;;-3.91;80.60;99041.28;118994;1150;65149;-80
2021/01/15 07:14:04;;;;;;;16.83;12.37;;;;;;;-3.94;80.29;99043.91;119061;1151;65108;-79
2021/01/15 07:16:38;;;;;;;17.95;11.95;;;;;;;-3.94;80.02;99054.33;118942;1151;65127;-80
2021/01/15 07:19:20;;;;;;;17.70;12.83;;;;;;;-3.97;79.56;99056.07;118993;1151;65136;-79
2021/01/15 07:22:02;;;;;;;19.60;13.30;;;;;;;-3.96;79.31;99054.33;119007;1151;65583;-79
2021/01/15 07:24:41;;;;;;;18.80;11.97;;;;;;;-3.94;78.53;99064.73;119007;1151;65194;-80
2021/01/15 07:27:13;;;;;;;19.43;11.90;;;;;;;-3.99;77.98;99052.61;119040;1151;65127;-79
2021/01/15 07:29:49;;;;;;;18.97;10.60;;;;;;;-4.02;77.41;99076.06;119033;1149;65127;-80
2021/01/15 07:32:21;;;;;;;18.60;11.90;;;;;;;-4.07;77.37;99079.58;119127;1151;65120;-80
2021/01/15 07:34:54;;;;;;;19.63;12.33;;;;;;;-4.09;78.27;99078.72;118735;1151;65073;-81
2021/01/15 07:37:29;;;;;;;17.80;11.33;;;;;;;-4.11;77.77;99081.31;119031;1151;65095;-81
2021/01/15 07:40:14;;;;;;;17.13;10.40;;;;;;;-4.15;76.69;99090.03;118841;1151;65108;-81
2021/01/15 07:42:57;;;;;;;18.00;12.50;;;;;;;-4.22;77.43;99094.39;119096;1151;65036;-81
2021/01/15 07:45:24;;;;;;;18.40;11.65;;;;;;;-4.24;77.36;99106.57;118765;1151;65537;-78
2021/01/15 07:47:51;;;;;;;20.27;12.43;;;;;;;-4.30;77.08;99100.52;119039;1151;65493;-79
2021/01/15 07:50:42;;;;;;;17.50;10.97;;;;;;;-4.34;76.10;99104.03;118982;1151;65232;-80
2021/01/15 07:53:20;;;;;;;18.00;12.07;;;;;;;-4.41;76.24;99110.98;119001;1151;65127;-80
2021/01/15 07:55:48;;;;;;;21.93;14.03;;;;;;;-4.51;76.95;99125.77;118394;1149;65235;-79
2021/01/15 07:58:17;;;;;;;22.23;13.53;;;;;;;-4.58;77.14;99124.08;118909;1151;65223;-80
2021/01/15 08:00:44;;;;;;;23.57;14.90;;;;;;;-4.64;77.07;99126.68;119071;1150;65104;-79
2021/01/15 08:03:11;;;;;;;28.73;17.47;;;;;;;-4.66;77.34;99133.62;118966;1151;65201;-79
2021/01/15 08:05:39;;;;;;;29.27;15.80;;;;;;;-4.68;77.19;99144.05;118885;1151;65066;-79
2021/01/15 08:08:10;;;;;;;32.25;19.15;;;;;;;-4.66;77.46;99137.11;118997;1151;65200;-79
2021/01/15 08:10:45;;;;;;;33.27;20.10;;;;;;;-4.54;76.74;99151.78;118964;1151;65123;-81
2021/01/15 08:13:29;;;;;;;42.10;23.10;;;;;;;-4.44;76.57;99161.29;119067;1151;65226;-81
2021/01/15 08:15:56;;;;;;;42.80;23.60;;;;;;;-4.39;77.15;99160.42;118647;1151;65181;-79
2021/01/15 08:18:25;;;;;;;42.33;23.87;;;;;;;-4.37;75.96;99163.85;118853;1151;65121;-79
2021/01/15 08:20:54;;;;;;;40.20;22.67;;;;;;;-4.38;75.66;99169.94;118823;1151;65146;-79
2021/01/15 08:23:26;;;;;;;40.93;22.63;;;;;;;-4.42;75.42;99164.75;118898;1151;65118;-79
2021/01/15 08:26:02;;;;;;;46.77;24.37;;;;;;;-4.47;75.84;99169.11;118727;1151;65121;-79
2021/01/15 08:28:29;;;;;;;39.50;20.20;;;;;;;-4.48;76.12;99174.30;118418;1151;65185;-79
2021/01/15 08:30:56;;;;;;;34.23;19.30;;;;;;;-4.46;75.84;99170.83;118555;1151;65118;-81
2021/01/15 08:33:22;;;;;;;30.93;18.73;;;;;;;-4.47;75.68;99176.91;118580;1151;65258;-80
2021/01/15 08:35:54;;;;;;;34.90;19.80;;;;;;;-4.42;75.41;99171.70;118599;1151;65127;-78
2021/01/15 08:38:37;;;;;;;29.07;18.17;;;;;;;-4.33;75.88;99157.78;118687;1150;65117;-80
2021/01/15 08:41:23;;;;;;;33.57;20.33;;;;;;;-4.26;75.81;99159.48;118905;1151;65271;-81
2021/01/15 08:43:52;;;;;;;25.73;15.47;;;;;;;-4.15;74.99;99164.64;119114;1151;65226;-79
2021/01/15 08:46:20;;;;;;;26.77;16.37;;;;;;;-4.07;75.80;99165.46;119085;1151;65123;-80
2021/01/15 08:48:47;;;;;;;28.87;18.57;;;;;;;-3.92;75.17;99170.59;119181;1149;65147;-80
2021/01/15 08:51:19;;;;;;;24.53;15.20;;;;;;;-3.78;74.51;99173.95;119364;1151;65105;-80
2021/01/15 08:54:04;;;;;;;23.57;15.57;;;;;;;-3.66;74.02;99177.34;119227;1150;65268;-80
2021/01/15 08:56:44;;;;;;;24.37;16.60;;;;;;;-3.55;74.47;99178.16;118794;1151;65092;-79
2021/01/15 08:59:27;;;;;;;31.15;18.50;;;;;;;-3.37;74.33;99185.84;118601;1151;65239;-80
2021/01/15 09:02:06;;;;;;;24.07;15.10;;;;;;;-3.12;74.04;99196.05;118981;1150;65098;-79
2021/01/15 09:04:34;;;;;;;26.17;16.67;;;;;;;-2.98;71.87;99198.53;118993;1150;65143;-80
2021/01/15 09:07:04;;;;;;;25.87;16.10;;;;;;;-2.84;72.91;99193.18;119223;1150;65268;-80
2021/01/15 09:09:32;;;;;;;26.47;17.40;;;;;;;-2.77;72.06;99190.50;119021;1151;65056;-80
2021/01/15 09:12:08;;;;;;;24.43;16.63;;;;;;;-2.66;72.31;99191.27;119090;1150;65185;-79
2021/01/15 09:14:36;;;;;;;29.20;17.70;;;;;;;-2.56;73.45;99188.55;119465;1150;65142;-79
2021/01/15 09:17:07;;;;;;;24.30;16.90;;;;;;;-2.37;71.60;99190.09;119047;1150;65214;-78
2021/01/15 09:19:35;;;;;;;17.10;10.83;;;;;;;-2.38;71.82;99197.92;119316;1150;65118;-83
2021/01/15 09:22:09;;;;;;;19.57;11.43;;;;;;;-2.28;71.27;99186.50;119244;1151;65095;-84
2021/01/15 09:24:36;;;;;;;17.50;11.35;;;;;;;-2.17;71.29;99179.39;119184;1151;65229;-82
2021/01/15 09:27:06;;;;;;;17.90;10.33;;;;;;;-2.14;70.51;99178.48;119356;1150;65118;-78
2021/01/15 09:29:34;;;;;;;16.77;11.03;;;;;;;-2.21;70.19;99173.36;119000;1151;65251;-77
2021/01/15 09:32:02;;;;;;;17.33;10.77;;;;;;;-2.29;70.05;99169.98;119248;1151;65124;-79
2021/01/15 09:34:29;;;;;;;15.60;9.65;;;;;;;-2.34;69.89;99166.56;119297;1150;65028;-77
2021/01/15 09:36:56;;;;;;;15.77;10.47;;;;;;;-2.38;69.44;99171.83;119182;1151;65158;-79
2021/01/15 09:39:24;;;;;;;15.63;10.37;;;;;;;-2.32;68.82;99167.38;118939;1151;65258;-79
2021/01/15 09:41:52;;;;;;;15.07;9.57;;;;;;;-2.14;69.01;99162.83;119248;1150;65111;-80
2021/01/15 09:44:20;;;;;;;18.90;11.50;;;;;;;-1.92;68.06;99160.78;119190;1150;65361;-81
2021/01/15 09:46:49;;;;;;;17.00;10.60;;;;;;;-1.82;68.56;99155.43;119105;1150;65206;-80
2021/01/15 09:49:16;;;;;;;17.53;11.33;;;;;;;-1.66;68.55;99156.06;119334;1151;65123;-79
2021/01/15 09:51:42;;;;;;;19.67;12.90;;;;;;;-1.47;69.34;99148.80;119011;1150;65114;-81
2021/01/15 09:54:09;;;;;;;22.60;15.50;;;;;;;-1.32;69.31;99145.05;119299;1150;65117;-81
2021/01/15 09:56:43;;;;;;;23.55;14.35;;;;;;;-1.18;68.22;99150.94;119026;1151;65443;-82
2021/01/15 09:59:15;;;;;;;14.07;10.07;;;;;;;-1.09;67.53;99162.13;119249;1150;65097;-79
2021/01/15 10:01:43;;;;;;;12.73;8.87;;;;;;;-0.97;68.01;99167.16;119056;1151;65182;-81
2021/01/15 10:04:09;;;;;;;13.40;8.93;;;;;;;-0.80;67.72;99170.31;119347;1150;65105;-81
2021/01/15 10:06:46;;;;;;;14.33;9.77;;;;;;;-0.63;68.04;99149.08;119320;1151;65133;-81
2021/01/15 10:09:16;;;;;;;14.53;10.03;;;;;;;-0.53;67.21;99147.98;119282;1150;65201;-79
2021/01/15 10:11:47;;;;;;;20.10;15.27;;;;;;;-0.42;67.44;99142.56;118992;1150;65153;-81
2021/01/15 10:14:16;;;;;;;21.93;19.33;;;;;;;-0.30;67.06;99149.29;118506;1151;65220;-80
2021/01/15 10:16:50;;;;;;;31.40;21.13;;;;;;;-0.29;66.16;99145.77;118449;1151;65175;-83
2021/01/15 10:19:18;;;;;;;23.15;16.00;;;;;;;-0.30;66.54;99144.91;119069;1151;65139;-84
2021/01/15 10:21:45;;;;;;;20.57;14.33;;;;;;;-0.31;65.80;99150.20;119257;1150;65246;-83
2021/01/15 10:24:13;;;;;;;21.03;14.63;;;;;;;-0.30;66.12;99154.53;119070;1150;65462;-84
2021/01/15 10:26:41;;;;;;;27.93;19.20;;;;;;;-0.27;66.17;99147.46;119306;1151;65126;-84
2021/01/15 10:29:13;;;;;;;17.17;11.20;;;;;;;-0.09;66.48;99154.08;119288;1150;65060;-84
2021/01/15 10:31:53;;;;;;;18.47;13.60;;;;;;;0.05;66.24;99148.53;119298;1151;65111;-84
2021/01/15 10:34:22;;;;;;;24.37;16.40;;;;;;;0.13;65.72;99144.02;119233;1150;65147;-83
2021/01/15 10:36:49;;;;;;;24.20;15.67;;;;;;;0.23;66.06;99143.78;119372;1150;65147;-84
2021/01/15 10:39:17;;;;;;;16.07;10.37;;;;;;;0.35;65.61;99147.00;119356;1151;65117;-84
2021/01/15 10:41:52;;;;;;;14.25;9.00;;;;;;;0.46;64.53;99153.75;119107;1151;65162;-82
2021/01/15 10:44:20;;;;;;;16.73;11.13;;;;;;;0.52;64.92;99151.83;119095;1150;65097;-83
2021/01/15 10:46:50;;;;;;;19.30;12.57;;;;;;;0.61;64.73;99156.88;118792;1150;65265;-82
2021/01/15 10:49:18;;;;;;;17.07;11.10;;;;;;;0.74;64.52;99159.17;119334;1150;65057;-85
2021/01/15 10:51:50;;;;;;;16.53;10.00;;;;;;;0.77;63.57;99159.98;119358;1151;65505;-84
2021/01/15 10:54:16;;;;;;;16.60;11.23;;;;;;;0.83;63.79;99156.34;119339;1150;65121;-82
2021/01/15 10:56:46;;;;;;;20.45;12.75;;;;;;;0.88;63.61;99165.81;119090;1150;65098;-84
2021/01/15 10:59:13;;;;;;;15.83;10.23;;;;;;;0.92;63.01;99163.11;118751;1150;66329;-84
2021/01/15 11:01:41;;;;;;;15.53;10.03;;;;;;;0.88;62.38;99159.72;119109;1151;65207;-82
2021/01/15 11:04:13;;;;;;;17.40;10.45;;;;;;;0.91;63.26;99159.63;119263;1151;65036;-83
2021/01/15 11:06:42;;;;;;;16.15;10.45;;;;;;;0.91;62.77;99157.01;119369;1151;65162;-83
2021/01/15 11:09:11;;;;;;;16.93;10.93;;;;;;;0.88;63.06;99162.34;119279;1150;65097;-83
2021/01/15 11:11:45;;;;;;;20.75;12.35;;;;;;;0.82;62.70;99162.50;119340;1150;65123;-83
2021/01/15 11:14:14;;;;;;;20.90;12.30;;;;;;;0.55;62.15;99159.62;119349;1150;65130;-83
2021/01/15 11:16:42;;;;;;;16.20;10.43;;;;;;;0.38;62.30;99162.65;119341;1150;65124;-83
2021/01/15 11:19:08;;;;;;;13.50;8.47;;;;;;;0.32;61.35;99147.07;119124;1151;65131;-83
2021/01/15 11:21:34;;;;;;;20.07;11.23;;;;;;;0.32;62.30;99144.45;119293;1150;65124;-83
2021/01/15 11:24:01;;;;;;;19.23;11.07;;;;;;;0.42;62.64;99150.31;119288;1151;65257;-83
2021/01/15 11:26:32;;;;;;;15.17;9.20;;;;;;;0.60;61.75;99147.26;119075;1149;65129;-83
2021/01/15 11:29:01;;;;;;;16.67;8.80;;;;;;;0.71;61.58;99144.41;119295;1150;65180;-83